createdAt,value
2022-08-07T00:00:39.860Z,100042.19
2022-08-07T00:03:09.164Z,100043.72
2022-08-07T00:05:37.418Z,100038.75
2022-08-07T00:08:05.622Z,100042.25
2022-08-07T00:10:36.480Z,100036.69
2022-08-07T00:13:23.809Z,100037.09
2022-08-07T00:15:53.819Z,100037.34
2022-08-07T00:18:25.093Z,100035.94
2022-08-07T00:21:03.522Z,100036.72
2022-08-07T00:23:37.454Z,100034.41
2022-08-07T00:26:13.024Z,100027.53
2022-08-07T00:28:56.774Z,100020.28
2022-08-07T00:31:26.125Z,100033.22
2022-08-07T00:34:09.008Z,100039.78
2022-08-07T00:36:38.516Z,100038.47
2022-08-07T00:39:06.190Z,100042.38
2022-08-07T00:41:37.412Z,100044.41
2022-08-07T00:44:13.023Z,100032.84
2022-08-07T00:46:42.631Z,100025.91
2022-08-07T00:49:10.936Z,100027.06
2022-08-07T00:51:58.906Z,100023.25
2022-08-07T00:54:26.316Z,100026.28
2022-08-07T00:56:53.695Z,100025.69
2022-08-07T00:59:35.068Z,100020.28
2022-08-07T01:02:13.935Z,100020.53
2022-08-07T01:04:58.281Z,100016.75
2022-08-07T01:07:28.111Z,100012.56
2022-08-07T01:10:04.218Z,100015.22
2022-08-07T01:12:33.084Z,100025.31
2022-08-07T01:15:03.941Z,100027.31
2022-08-07T01:17:32.724Z,100027.47
2022-08-07T01:20:16.845Z,100026.94
2022-08-07T01:23:00.567Z,100020.19
2022-08-07T01:25:54.514Z,100020.97
2022-08-07T01:28:22.722Z,100023.94
2022-08-07T01:30:52.742Z,100021.13
2022-08-07T01:33:22.481Z,100020.84
2022-08-07T01:35:54.474Z,100015.66
2022-08-07T01:38:34.138Z,100016.16
2022-08-07T01:41:05.499Z,100008.50
2022-08-07T01:43:38.537Z,100017.97
2022-08-07T01:46:08.262Z,100022.28
2022-08-07T01:48:42.179Z,100022.31
2022-08-07T01:52:02.074Z,100027.72
2022-08-07T01:54:13.025Z,100020.63
2022-08-07T01:57:04.533Z,100018.75
2022-08-07T01:59:54.996Z,100015.50
2022-08-07T02:02:32.614Z,100017.53
2022-08-07T02:05:48.207Z,100012.69
2022-08-07T02:08:16.929Z,100026.19
2022-08-07T02:10:48.663Z,100023.00
2022-08-07T02:13:47.101Z,100023.25
2022-08-07T02:16:17.880Z,100028.59
2022-08-07T02:18:51.207Z,100020.50
2022-08-07T02:21:19.399Z,100028.94
2022-08-07T02:23:47.838Z,100031.28
2022-08-07T02:26:32.366Z,100033.16
2022-08-07T02:29:05.292Z,100037.69
2022-08-07T02:31:41.241Z,100040.81
2022-08-07T02:34:11.186Z,100037.53
2022-08-07T02:36:45.237Z,100040.44
2022-08-07T02:39:16.206Z,100043.16
2022-08-07T02:42:10.362Z,100040.81
2022-08-07T02:44:45.809Z,100034.25
2022-08-07T02:47:35.112Z,100044.88
2022-08-07T02:50:06.847Z,100049.25
2022-08-07T02:52:44.073Z,100050.94
2022-08-07T02:55:27.948Z,100042.06
2022-08-07T02:58:12.099Z,100045.62
2022-08-07T03:00:41.896Z,100045.41
2022-08-07T03:03:22.604Z,100040.66
2022-08-07T03:05:52.140Z,100043.34
2022-08-07T03:08:29.107Z,100041.69
2022-08-07T03:10:58.520Z,100038.91
2022-08-07T03:13:26.633Z,100035.47
2022-08-07T03:15:56.345Z,100049.94
2022-08-07T03:18:34.697Z,100037.69
2022-08-07T03:21:08.691Z,100035.03
2022-08-07T03:24:18.462Z,100038.13
2022-08-07T03:26:33.072Z,100039.63
2022-08-07T03:29:03.472Z,100040.34
2022-08-07T03:31:42.460Z,100037.53
2022-08-07T03:34:18.453Z,100042.75
2022-08-07T03:36:51.815Z,100039.09
2022-08-07T03:39:45.919Z,100033.22
2022-08-07T03:42:09.311Z,100026.44
2022-08-07T03:44:37.940Z,100036.28
2022-08-07T03:47:13.378Z,100048.00
2022-08-07T03:49:47.653Z,100042.06
2022-08-07T03:52:22.638Z,100056.12
2022-08-07T03:55:06.803Z,100056.88
2022-08-07T03:58:08.689Z,100066.66
2022-08-07T04:00:29.262Z,100062.22
2022-08-07T04:02:59.630Z,100064.22
2022-08-07T04:05:40.754Z,100071.59
2022-08-07T04:08:12.538Z,100075.03
2022-08-07T04:10:54.501Z,100078.53
2022-08-07T04:14:10.406Z,100077.50
2022-08-07T04:16:30.994Z,100089.50
2022-08-07T04:19:03.845Z,100087.31
2022-08-07T04:21:40.179Z,100087.47
2022-08-07T04:24:33.727Z,100086.47
2022-08-07T04:27:04.456Z,100094.22
2022-08-07T04:29:40.309Z,100108.84
2022-08-07T04:32:33.991Z,100102.19
2022-08-07T04:35:11.483Z,100097.91
2022-08-07T04:38:00.809Z,100096.69
2022-08-07T04:40:31.390Z,100105.97
2022-08-07T04:43:02.149Z,100104.06
2022-08-07T04:46:01.625Z,100115.91
2022-08-07T04:48:51.024Z,100105.37
2022-08-07T04:51:27.588Z,100110.16
2022-08-07T04:54:33.385Z,100111.28
2022-08-07T04:58:07.389Z,100111.47
2022-08-07T05:00:12.246Z,100103.09
2022-08-07T05:02:59.233Z,100106.53
2022-08-07T05:05:52.833Z,100093.53
2022-08-07T05:08:59.200Z,100097.47
2022-08-07T05:11:26.323Z,100101.69
2022-08-07T05:14:55.283Z,100099.03
2022-08-07T05:17:11.915Z,100105.66
2022-08-07T05:19:49.760Z,100105.56
2022-08-07T05:22:26.786Z,100109.56
2022-08-07T05:24:59.697Z,100110.78
2022-08-07T05:28:03.503Z,100113.47
2022-08-07T05:30:21.167Z,100127.25
2022-08-07T05:33:03.264Z,100121.00
2022-08-07T05:35:42.234Z,100119.25
2022-08-07T05:38:11.079Z,100119.88
2022-08-07T05:40:41.871Z,100125.97
2022-08-07T05:43:19.408Z,100129.16
2022-08-07T05:46:07.097Z,100121.34
2022-08-07T05:48:34.815Z,100121.50
2022-08-07T05:51:03.364Z,100121.50
2022-08-07T05:54:12.780Z,100128.63
2022-08-07T05:56:20.077Z,100132.03
2022-08-07T05:59:00.061Z,100131.66
2022-08-07T06:01:34.832Z,100130.66
2022-08-07T06:04:04.995Z,100129.56
2022-08-07T06:06:35.127Z,100133.44
2022-08-07T06:09:04.663Z,100133.84
2022-08-07T06:11:34.470Z,100140.06
2022-08-07T06:14:11.921Z,100138.00
2022-08-07T06:16:50.226Z,100137.75
2022-08-07T06:19:57.666Z,100130.47
2022-08-07T06:22:15.644Z,100140.69
2022-08-07T06:25:00.900Z,100150.19
2022-08-07T06:28:00.434Z,100140.88
2022-08-07T06:30:24.017Z,100147.59
2022-08-07T06:33:00.840Z,100145.19
2022-08-07T06:35:38.949Z,100142.09
2022-08-07T06:38:20.095Z,100151.25
2022-08-07T06:40:50.516Z,100148.34
2022-08-07T06:43:22.228Z,100156.59
2022-08-07T06:45:56.332Z,100157.16
2022-08-07T06:48:28.631Z,100162.31
2022-08-07T06:50:59.418Z,100163.19
2022-08-07T06:54:12.198Z,100168.41
2022-08-07T06:56:49.791Z,100172.37
2022-08-07T07:00:13.979Z,100165.78
2022-08-07T07:02:48.777Z,100171.94
2022-08-07T07:05:12.780Z,100163.00
2022-08-07T07:07:59.472Z,100156.81
2022-08-07T07:10:31.162Z,100159.03
2022-08-07T07:13:56.103Z,100154.75
2022-08-07T07:16:19.610Z,100156.13
2022-08-07T07:18:51.511Z,100151.12
2022-08-07T07:21:40.267Z,100159.19
2022-08-07T07:24:20.579Z,100172.87
2022-08-07T07:26:52.807Z,100163.84
2022-08-07T07:29:57.269Z,100167.28
2022-08-07T07:32:14.919Z,100159.69
2022-08-07T07:34:45.751Z,100163.50
2022-08-07T07:37:45.520Z,100157.81
2022-08-07T07:40:14.637Z,100152.16
2022-08-07T07:42:53.749Z,100149.22
2022-08-07T07:46:37.965Z,100157.28
2022-08-07T07:48:35.154Z,100156.38
2022-08-07T07:51:07.932Z,100150.88
2022-08-07T07:53:52.199Z,100160.84
2022-08-07T07:56:29.938Z,100154.81
2022-08-07T07:58:59.972Z,100159.22
2022-08-07T08:02:01.707Z,100153.38
2022-08-07T08:04:20.196Z,100157.97
2022-08-07T08:06:54.343Z,100162.75
2022-08-07T08:09:29.180Z,100161.69
2022-08-07T08:12:01.883Z,100162.37
2022-08-07T08:14:36.665Z,100165.22
2022-08-07T08:17:55.497Z,100161.28
2022-08-07T08:20:17.550Z,100158.59
2022-08-07T08:23:09.440Z,100169.94
2022-08-07T08:26:02.192Z,100163.50
2022-08-07T08:28:38.268Z,100158.50
2022-08-07T08:31:14.728Z,100153.16
2022-08-07T08:33:49.604Z,100152.94
2022-08-07T08:36:30.800Z,100151.78
2022-08-07T08:39:02.190Z,100165.03
2022-08-07T08:41:57.218Z,100165.78
2022-08-07T08:44:44.848Z,100160.56
2022-08-07T08:47:51.786Z,100161.94
2022-08-07T08:50:39.099Z,100159.25
2022-08-07T08:53:45.978Z,100160.25
2022-08-07T08:56:24.206Z,100153.19
2022-08-07T08:58:57.189Z,100153.16
2022-08-07T09:01:44.116Z,100159.25
2022-08-07T09:04:26.139Z,100153.34
2022-08-07T09:07:11.850Z,100151.16
2022-08-07T09:09:58.080Z,100153.19
2022-08-07T09:12:46.772Z,100154.97
2022-08-07T09:16:24.812Z,100157.44
2022-08-07T09:19:51.202Z,100157.12
2022-08-07T09:24:31.902Z,100159.25
2022-08-07T09:25:34.288Z,100157.53
2022-08-07T09:30:00.473Z,100155.09
2022-08-07T09:31:04.068Z,100151.53
2022-08-07T09:33:58.232Z,100149.50
2022-08-07T09:36:37.309Z,100152.50
2022-08-07T09:39:55.249Z,100145.47
2022-08-07T09:42:48.020Z,100149.72
2022-08-07T09:47:25.245Z,100147.31
2022-08-07T09:48:56.167Z,100142.31
2022-08-07T09:52:09.928Z,100136.06
2022-08-07T09:54:40.317Z,100134.50
2022-08-07T09:57:47.174Z,100126.09
2022-08-07T10:00:16.167Z,100129.38
2022-08-07T10:04:03.081Z,100128.63
2022-08-07T10:06:00.168Z,100118.37
2022-08-07T10:08:58.368Z,100117.44
2022-08-07T10:12:02.326Z,100113.94
2022-08-07T10:15:15.386Z,100117.00
2022-08-07T10:18:03.109Z,100106.50
2022-08-07T10:21:19.559Z,100115.53
2022-08-07T10:24:05.193Z,100105.53
2022-08-07T10:26:58.926Z,100102.25
2022-08-07T10:30:06.500Z,100103.56
2022-08-07T10:32:59.731Z,100101.00
2022-08-07T10:35:56.008Z,100101.03
2022-08-07T10:38:49.061Z,100093.81
2022-08-07T10:41:47.209Z,100087.97
2022-08-07T10:44:28.508Z,100092.63
2022-08-07T10:47:26.942Z,100085.78
2022-08-07T10:50:25.876Z,100086.66
2022-08-07T10:53:21.668Z,100072.97
2022-08-07T10:56:02.233Z,100081.34
2022-08-07T10:58:59.729Z,100082.13
2022-08-07T11:01:35.515Z,100076.62
2022-08-07T11:04:32.222Z,100077.09
2022-08-07T11:07:59.150Z,100074.56
2022-08-07T11:10:20.157Z,100069.38
2022-08-07T11:13:04.279Z,100060.97
2022-08-07T11:15:36.146Z,100062.78
2022-08-07T11:18:12.707Z,100058.59
2022-08-07T11:20:47.280Z,100056.38
2022-08-07T11:23:38.856Z,100050.22
2022-08-07T11:26:49.830Z,100049.69
2022-08-07T11:29:48.300Z,100040.59
2022-08-07T11:32:31.087Z,100033.22
2022-08-07T11:35:01.371Z,100030.00
2022-08-07T11:37:58.019Z,100032.69
2022-08-07T11:40:39.644Z,100038.16
2022-08-07T11:43:29.801Z,100039.00
2022-08-07T11:46:36.600Z,100033.22
2022-08-07T11:50:18.775Z,100030.06
2022-08-07T11:52:48.011Z,100027.75
2022-08-07T11:56:09.719Z,100022.59
2022-08-07T11:58:20.798Z,100010.50
2022-08-07T12:01:07.532Z,100011.41
2022-08-07T12:04:03.302Z,100011.28
2022-08-07T12:06:51.618Z,100003.34
2022-08-07T12:09:31.810Z,100011.03
2022-08-07T12:12:09.012Z,100004.22
2022-08-07T12:14:55.701Z,100002.87
2022-08-07T12:17:58.638Z,99999.66
2022-08-07T12:20:36.674Z,99991.50
2022-08-07T12:23:37.293Z,100001.09
2022-08-07T12:26:29.968Z,99990.84
2022-08-07T12:29:01.700Z,99989.31
2022-08-07T12:32:01.986Z,99983.94
2022-08-07T12:34:37.104Z,99983.78
2022-08-07T12:37:16.225Z,99969.63
2022-08-07T12:39:50.490Z,99972.88
2022-08-07T12:42:27.222Z,99976.19
2022-08-07T12:44:58.378Z,99973.66
2022-08-07T12:47:43.926Z,99971.66
2022-08-07T12:50:40.203Z,99966.31
2022-08-07T12:53:22.579Z,99968.31
2022-08-07T12:56:03.354Z,99964.16
2022-08-07T12:58:35.341Z,99954.69
2022-08-07T13:01:14.044Z,99961.47
2022-08-07T13:04:02.965Z,99957.53
2022-08-07T13:06:32.197Z,99951.12
2022-08-07T13:10:19.312Z,99954.09
2022-08-07T13:12:22.633Z,99958.66
2022-08-07T13:15:02.129Z,99950.41
2022-08-07T13:17:41.131Z,99951.28
2022-08-07T13:20:27.793Z,99942.06
2022-08-07T13:23:59.757Z,99936.94
2022-08-07T13:26:01.915Z,99949.28
2022-08-07T13:28:39.761Z,99939.47
2022-08-07T13:31:13.176Z,99942.78
2022-08-07T13:34:30.162Z,99939.63
2022-08-07T13:36:43.700Z,99936.22
2022-08-07T13:39:28.562Z,99939.06
2022-08-07T13:42:10.395Z,99937.28
2022-08-07T13:44:39.719Z,99930.81
2022-08-07T13:47:15.162Z,99926.28
2022-08-07T13:50:33.289Z,99924.56
2022-08-07T13:52:40.842Z,99919.34
2022-08-07T13:55:19.713Z,99918.19
2022-08-07T13:58:28.103Z,99913.25
2022-08-07T14:01:08.948Z,99905.84
2022-08-07T14:04:05.088Z,99907.97
2022-08-07T14:06:32.238Z,99909.41
2022-08-07T14:09:04.785Z,99909.19
2022-08-07T14:11:53.183Z,99903.53
2022-08-07T14:14:26.871Z,99905.19
2022-08-07T14:16:57.589Z,99901.50
2022-08-07T14:20:40.725Z,99902.16
2022-08-07T14:22:34.772Z,99898.50
2022-08-07T14:25:12.453Z,99897.22
2022-08-07T14:28:12.208Z,99894.06
2022-08-07T14:30:40.612Z,99893.38
2022-08-07T14:33:08.672Z,99890.56
2022-08-07T14:35:45.488Z,99887.06
2022-08-07T14:38:26.313Z,99888.78
2022-08-07T14:41:02.114Z,99886.53
2022-08-07T14:43:58.159Z,99883.38
2022-08-07T14:46:30.516Z,99880.00
2022-08-07T14:49:56.114Z,99876.16
2022-08-07T14:54:41.693Z,99874.56
2022-08-07T14:57:18.728Z,99872.13
2022-08-07T15:00:04.749Z,99863.50
2022-08-07T15:05:24.774Z,99865.38
2022-08-07T15:07:54.216Z,99855.31
2022-08-07T15:10:26.164Z,99867.22
2022-08-07T15:12:58.413Z,99862.69
2022-08-07T15:15:52.635Z,99861.28
2022-08-07T15:18:33.905Z,99855.03
2022-08-07T15:21:08.194Z,99850.19
2022-08-07T15:25:04.038Z,99845.94
2022-08-07T15:26:36.751Z,99842.81
2022-08-07T15:30:06.637Z,99847.94
2022-08-07T15:32:00.686Z,99849.66
2022-08-07T15:34:50.379Z,99847.09
2022-08-07T15:37:27.555Z,99836.03
2022-08-07T15:39:59.012Z,99842.97
2022-08-07T15:45:56.214Z,99849.91
2022-08-07T15:48:25.780Z,99844.25
2022-08-07T15:51:08.276Z,99842.13
2022-08-07T15:53:52.861Z,99841.97
2022-08-07T15:56:34.947Z,99843.22
2022-08-07T15:59:06.152Z,99832.34
2022-08-07T16:02:01.826Z,99833.03
2022-08-07T16:04:33.637Z,99832.66
2022-08-07T16:07:05.170Z,99838.53
2022-08-07T16:10:05.990Z,99835.28
2022-08-07T16:13:17.797Z,99840.87
2022-08-07T16:16:02.273Z,99837.75
2022-08-07T16:18:49.628Z,99842.84
2022-08-07T16:22:17.887Z,99844.50
2022-08-07T16:25:03.511Z,99842.34
2022-08-07T16:27:47.351Z,99841.41
2022-08-07T16:30:30.768Z,99844.06
2022-08-07T16:34:01.404Z,99849.19
2022-08-07T16:37:02.757Z,99846.13
2022-08-07T16:39:33.542Z,99852.84
2022-08-07T16:42:23.963Z,99850.88
2022-08-07T16:46:33.755Z,99845.59
2022-08-07T16:48:05.185Z,99840.31
2022-08-07T16:51:20.523Z,99843.13
2022-08-07T16:54:01.837Z,99843.31
2022-08-07T16:56:56.067Z,99844.62
2022-08-07T16:59:46.773Z,99840.97
2022-08-07T17:02:51.785Z,99849.94
2022-08-07T17:06:18.856Z,99847.00
2022-08-07T17:08:18.708Z,99845.16
2022-08-07T17:10:57.377Z,99842.22
2022-08-07T17:14:19.146Z,99850.38
2022-08-07T17:16:57.315Z,99850.19
2022-08-07T17:20:00.876Z,99842.13
2022-08-07T17:22:42.553Z,99849.22
2022-08-07T17:25:15.825Z,99854.38
2022-08-07T17:28:19.498Z,99848.09
2022-08-07T17:31:16.932Z,99851.69
2022-08-07T17:34:32.831Z,99845.69
2022-08-07T17:36:49.007Z,99848.66
2022-08-07T17:39:58.413Z,99851.13
2022-08-07T17:42:59.630Z,99856.37
2022-08-07T17:45:28.268Z,99857.75
2022-08-07T17:47:59.624Z,99859.81
2022-08-07T17:50:42.473Z,99860.97
2022-08-07T17:54:01.334Z,99863.50
2022-08-07T17:56:29.002Z,99863.16
2022-08-07T17:59:01.811Z,99866.69
2022-08-07T18:01:43.160Z,99867.94
2022-08-07T18:04:16.289Z,99876.59
2022-08-07T18:07:19.653Z,99876.25
2022-08-07T18:10:07.499Z,99880.16
2022-08-07T18:12:50.353Z,99889.59
2022-08-07T18:15:32.523Z,99897.53
2022-08-07T18:18:46.614Z,99902.16
2022-08-07T18:21:27.491Z,99900.47
2022-08-07T18:24:07.656Z,99896.78
2022-08-07T18:26:40.747Z,99900.38
2022-08-07T18:30:08.344Z,99902.94
2022-08-07T18:32:07.719Z,99901.47
2022-08-07T18:35:08.016Z,99905.88
2022-08-07T18:38:58.250Z,99916.03
2022-08-07T18:40:53.905Z,99923.94
2022-08-07T18:43:49.671Z,99918.44
2022-08-07T18:46:35.006Z,99925.37
2022-08-07T18:50:31.018Z,99920.75
2022-08-07T18:52:35.222Z,99928.03
2022-08-07T18:55:43.173Z,99919.75
2022-08-07T18:58:26.110Z,99925.03
2022-08-07T19:02:18.264Z,99939.22
2022-08-07T19:04:25.028Z,99934.63
2022-08-07T19:07:35.143Z,99931.03
2022-08-07T19:10:14.877Z,99937.88
2022-08-07T19:13:10.123Z,99947.53
2022-08-07T19:16:04.329Z,99954.78
2022-08-07T19:19:13.221Z,99970.09
2022-08-07T19:21:56.045Z,99987.13
2022-08-07T19:24:31.035Z,99986.78
2022-08-07T19:28:31.057Z,99992.00
2022-08-07T19:31:06.290Z,100000.13
2022-08-07T19:32:50.858Z,100001.88
2022-08-07T19:35:22.658Z,100002.87
2022-08-07T19:37:57.498Z,100011.53
2022-08-07T19:40:31.772Z,100008.84
2022-08-07T19:43:10.562Z,100010.25
2022-08-07T19:46:07.697Z,100017.63
2022-08-07T19:48:32.111Z,100012.19
2022-08-07T19:51:20.068Z,100018.84
2022-08-07T19:54:32.447Z,100022.50
2022-08-07T19:57:52.006Z,100026.59
2022-08-07T19:59:41.195Z,100022.75
2022-08-07T20:02:19.481Z,100027.50
2022-08-07T20:04:50.273Z,100020.63
2022-08-07T20:07:46.918Z,100018.72
2022-08-07T20:10:38.345Z,100027.03
2022-08-07T20:13:05.944Z,100029.22
2022-08-07T20:15:37.049Z,100023.75
2022-08-07T20:18:14.693Z,100029.53
2022-08-07T20:20:48.427Z,100030.28
2022-08-07T20:23:40.281Z,100038.59
2022-08-07T20:26:10.000Z,100039.66
2022-08-07T20:28:39.062Z,100044.59
2022-08-07T20:31:21.360Z,100039.88
2022-08-07T20:33:56.654Z,100044.69
2022-08-07T20:36:29.669Z,100047.91
2022-08-07T20:38:59.645Z,100049.84
2022-08-07T20:41:38.003Z,100043.72
2022-08-07T20:44:12.324Z,100047.03
2022-08-07T20:46:43.761Z,100049.19
2022-08-07T20:50:00.920Z,100040.72
2022-08-07T20:52:16.468Z,100035.81
2022-08-07T20:54:54.100Z,100034.09
2022-08-07T20:57:25.011Z,100036.66
2022-08-07T21:00:05.227Z,100034.94
2022-08-07T21:02:58.729Z,100035.81
2022-08-07T21:05:50.919Z,100034.28
2022-08-07T21:09:02.917Z,100041.56
2022-08-07T21:11:50.144Z,100050.87
2022-08-07T21:14:32.610Z,100045.72
2022-08-07T21:18:04.019Z,100061.19
2022-08-07T21:20:04.669Z,100056.72
2022-08-07T21:22:39.767Z,100059.88
2022-08-07T21:25:39.118Z,100069.34
2022-08-07T21:28:48.013Z,100074.37
2022-08-07T21:32:10.975Z,100073.66
2022-08-07T21:34:32.618Z,100069.84
2022-08-07T21:37:04.085Z,100067.78
2022-08-07T21:39:56.477Z,100070.09
2022-08-07T21:43:03.515Z,100073.06
2022-08-07T21:46:08.438Z,100077.91
2022-08-07T21:48:59.979Z,100078.56
2022-08-07T21:51:27.330Z,100077.53
2022-08-07T21:54:12.740Z,100079.69
2022-08-07T21:57:31.460Z,100086.09
2022-08-07T22:00:22.925Z,100086.66
2022-08-07T22:03:17.101Z,100084.19
2022-08-07T22:06:02.059Z,100091.44
2022-08-07T22:08:33.592Z,100094.31
2022-08-07T22:11:03.938Z,100088.84
2022-08-07T22:13:51.985Z,100092.56
2022-08-07T22:16:44.690Z,100091.66
2022-08-07T22:19:30.306Z,100088.50
2022-08-07T22:22:17.612Z,100095.19
2022-08-07T22:24:54.660Z,100096.72
2022-08-07T22:28:08.391Z,100089.00
2022-08-07T22:30:21.872Z,100095.97
2022-08-07T22:33:09.333Z,100095.59
2022-08-07T22:35:46.287Z,100100.72
2022-08-07T22:38:25.597Z,100100.81
2022-08-07T22:41:02.969Z,100098.59
2022-08-07T22:43:39.762Z,100098.91
2022-08-07T22:47:03.069Z,100099.75
2022-08-07T22:49:37.963Z,100094.75
2022-08-07T22:52:36.920Z,100103.16
2022-08-07T22:55:22.542Z,100105.34
2022-08-07T22:58:12.432Z,100109.81
2022-08-07T23:01:06.242Z,100112.06
2022-08-07T23:03:59.125Z,100116.03
2022-08-07T23:06:50.038Z,100121.72
2022-08-07T23:10:05.219Z,100130.25
2022-08-07T23:12:51.275Z,100134.31
2022-08-07T23:16:06.063Z,100125.88
2022-08-07T23:19:16.950Z,100132.09
2022-08-07T23:21:56.533Z,100132.09
2022-08-07T23:24:38.780Z,100129.16
2022-08-07T23:28:20.575Z,100126.56
2022-08-07T23:31:06.280Z,100127.06
2022-08-07T23:34:22.553Z,100126.81
2022-08-07T23:37:20.366Z,100132.13
2022-08-07T23:40:28.252Z,100132.97
2022-08-07T23:43:19.764Z,100128.75
2022-08-07T23:46:10.963Z,100142.37
2022-08-07T23:48:58.758Z,100140.59
2022-08-07T23:53:08.845Z,100136.66
2022-08-07T23:54:43.830Z,100132.31
2022-08-07T23:57:32.455Z,100120.72
